Time;durP1;ratioP1;P1;durP2;ratioP2;P2;SDS_P1;SDS_P2;PMS_P1;PMS_P2;Temp;Humidity;BMP_temperature;BMP_pressure;BME280_temperature;BME280_humidity;BME280_pressure;Samples;Min_cycle;Max_cycle;Signal;HPM_P1;HPM_P2
2023/10/23 00:00:04;;;;;;;11.13;4.70;;;7.90;99.90;;;;;;5028738;28;20065;-79
2023/10/23 00:02:30;;;;;;;9.77;3.97;;;8.00;99.90;;;;;;5018228;28;20094;-79
2023/10/23 00:04:56;;;;;;;7.88;4.70;;;7.90;99.90;;;;;;5035249;28;20044;-79
2023/10/23 00:07:21;;;;;;;11.60;5.22;;;7.90;99.90;;;;;;5016977;28;20037;-79
2023/10/23 00:09:47;;;;;;;16.17;4.93;;;7.90;99.90;;;;;;5034533;28;20021;-78
2023/10/23 00:12:13;;;;;;;12.00;4.75;;;7.90;99.90;;;;;;5022401;28;20032;-79
2023/10/23 00:14:38;;;;;;;8.73;5.03;;;7.80;99.90;;;;;;5026724;28;20590;-79
2023/10/23 00:17:04;;;;;;;9.20;5.97;;;7.80;99.90;;;;;;5020104;28;20113;-79
2023/10/23 00:19:30;;;;;;;15.25;7.70;;;7.80;99.90;;;;;;5034688;28;20439;-79
2023/10/23 00:21:55;;;;;;;15.35;9.07;;;7.80;99.90;;;;;;5016365;28;20393;-79
2023/10/23 00:24:21;;;;;;;18.42;9.77;;;7.80;99.90;;;;;;5032773;28;20168;-79
2023/10/23 00:26:47;;;;;;;19.83;10.00;;;7.70;99.90;;;;;;5028573;28;20079;-79
2023/10/23 00:29:13;;;;;;;19.23;10.00;;;7.70;99.90;;;;;;5021496;28;20033;-79
2023/10/23 00:31:38;;;;;;;17.55;9.55;;;7.70;99.90;;;;;;5034205;28;20028;-79
2023/10/23 00:34:04;;;;;;;18.30;8.73;;;7.70;99.90;;;;;;5015411;28;20033;-79
2023/10/23 00:36:30;;;;;;;16.42;8.90;;;7.70;99.90;;;;;;5032490;28;20406;-79
2023/10/23 00:38:55;;;;;;;17.63;8.60;;;7.70;99.90;;;;;;5022777;28;20033;-80
2023/10/23 00:41:21;;;;;;;15.95;8.40;;;7.70;99.90;;;;;;5031343;28;20063;-80
2023/10/23 00:43:46;;;;;;;20.77;9.70;;;7.70;99.90;;;;;;5020614;28;20595;-80
2023/10/23 00:46:19;;;;;;;18.25;9.20;;;7.70;99.90;;;;;;5034773;28;20044;-80
2023/10/23 00:48:47;;;;;;;14.00;9.15;;;7.80;99.90;;;;;;5022344;28;20028;-80
2023/10/23 00:51:15;;;;;;;16.45;9.10;;;7.90;99.90;;;;;;5039870;28;20029;-80
2023/10/23 00:53:42;;;;;;;13.43;8.80;;;8.00;99.90;;;;;;5022695;28;20123;-80
2023/10/23 00:56:09;;;;;;;17.10;9.32;;;8.10;99.90;;;;;;5034593;28;20281;-80
2023/10/23 00:58:39;;;;;;;20.02;9.10;;;8.20;99.90;;;;;;5026896;28;20078;-80
2023/10/23 01:01:06;;;;;;;14.68;8.93;;;8.30;99.90;;;;;;5032701;28;20033;-80
2023/10/23 01:03:31;;;;;;;14.02;8.40;;;8.40;99.90;;;;;;5025750;28;20257;-80
2023/10/23 01:05:58;;;;;;;14.13;7.63;;;8.50;99.90;;;;;;5034972;28;20043;-80
2023/10/23 01:08:23;;;;;;;15.23;7.40;;;8.60;99.90;;;;;;5020307;28;20449;-80
2023/10/23 01:10:49;;;;;;;13.00;7.90;;;8.60;99.90;;;;;;5039126;28;20112;-80
2023/10/23 01:13:15;;;;;;;12.75;6.78;;;8.70;99.90;;;;;;5032913;28;20025;-80
2023/10/23 01:15:41;;;;;;;11.57;7.68;;;8.70;99.90;;;;;;5019855;28;20118;-80
2023/10/23 01:18:06;;;;;;;12.55;6.90;;;8.70;99.90;;;;;;5036900;28;20414;-80
2023/10/23 01:20:32;;;;;;;9.18;6.68;;;8.70;99.90;;;;;;5020425;28;20037;-80
2023/10/23 01:22:59;;;;;;;9.98;5.72;;;8.70;99.90;;;;;;5035770;28;20033;-80
2023/10/23 01:25:26;;;;;;;11.95;5.30;;;8.80;99.90;;;;;;5023022;28;20048;-80
2023/10/23 01:27:52;;;;;;;11.07;6.13;;;8.80;99.90;;;;;;5034125;28;20041;-80
2023/10/23 01:30:18;;;;;;;14.30;6.10;;;8.70;99.90;;;;;;5019838;28;20129;-79
2023/10/23 01:32:44;;;;;;;14.60;6.20;;;8.60;99.90;;;;;;5036926;28;20029;-79
2023/10/23 01:35:10;;;;;;;13.77;5.43;;;8.50;99.90;;;;;;5021081;28;20454;-79
2023/10/23 01:37:36;;;;;;;9.32;5.55;;;8.50;99.90;;;;;;5040489;28;20116;-80
2023/10/23 01:40:03;;;;;;;15.00;6.32;;;8.40;99.90;;;;;;5025927;28;20405;-80
2023/10/23 01:42:30;;;;;;;11.32;5.40;;;8.30;99.90;;;;;;5036347;28;20025;-80
2023/10/23 01:44:57;;;;;;;11.50;5.70;;;8.20;99.90;;;;;;5023105;28;20045;-79
2023/10/23 01:47:27;;;;;;;11.75;6.00;;;8.10;99.90;;;;;;5035642;28;20041;-80
2023/10/23 01:49:53;;;;;;;11.48;5.68;;;8.10;99.90;;;;;;5021904;28;20065;-80
2023/10/23 01:52:19;;;;;;;11.85;6.20;;;8.10;99.90;;;;;;5037820;28;20099;-79
2023/10/23 01:54:45;;;;;;;10.98;5.20;;;8.10;99.90;;;;;;5024614;28;20029;-80
2023/10/23 01:57:11;;;;;;;9.07;5.20;;;8.00;99.90;;;;;;5032684;28;20102;-80
2023/10/23 01:59:38;;;;;;;8.20;5.22;;;8.00;99.90;;;;;;5035726;28;20099;-80
2023/10/23 02:02:03;;;;;;;9.82;5.72;;;8.00;99.90;;;;;;5011647;28;20127;-80
2023/10/23 02:04:29;;;;;;;10.95;6.07;;;7.90;99.90;;;;;;5032859;28;20037;-80
2023/10/23 02:06:55;;;;;;;6.25;4.78;;;7.90;99.90;;;;;;5022265;28;20048;-80
2023/10/23 02:09:21;;;;;;;9.48;5.50;;;7.90;99.90;;;;;;5025606;28;20029;-80
2023/10/23 02:11:47;;;;;;;11.88;5.97;;;7.90;99.90;;;;;;5023991;28;20091;-79
2023/10/23 02:14:13;;;;;;;9.27;5.93;;;7.80;99.90;;;;;;5031779;28;21110;-80
2023/10/23 02:16:38;;;;;;;11.05;5.93;;;7.90;99.90;;;;;;5018302;28;20041;-80
2023/10/23 02:19:04;;;;;;;10.95;6.20;;;7.90;99.90;;;;;;5032498;28;20066;-80
2023/10/23 02:21:30;;;;;;;9.57;5.88;;;7.90;99.90;;;;;;5016568;28;20791;-80
2023/10/23 02:23:55;;;;;;;8.63;5.82;;;7.90;99.90;;;;;;5036478;28;20075;-79
2023/10/23 02:26:21;;;;;;;10.75;5.15;;;7.90;99.90;;;;;;5026064;28;20464;-80
2023/10/23 02:28:47;;;;;;;13.80;5.85;;;7.90;99.90;;;;;;5032651;28;20032;-79
2023/10/23 02:31:13;;;;;;;12.52;5.22;;;7.90;99.90;;;;;;5024604;28;21106;-80
2023/10/23 02:33:39;;;;;;;10.13;5.45;;;8.00;99.90;;;;;;5034992;28;20028;-80
2023/10/23 02:36:05;;;;;;;11.23;5.55;;;8.00;99.90;;;;;;5027415;28;20393;-79
2023/10/23 02:38:31;;;;;;;8.25;5.72;;;8.10;99.90;;;;;;5029044;28;20037;-80
2023/10/23 02:40:56;;;;;;;9.02;5.43;;;8.20;99.90;;;;;;5032054;28;20028;-80
2023/10/23 02:43:22;;;;;;;10.93;5.10;;;8.20;99.90;;;;;;5024515;28;20035;-80
2023/10/23 02:45:48;;;;;;;10.55;5.35;;;8.20;99.90;;;;;;5032249;28;20037;-80
2023/10/23 02:48:16;;;;;;;10.32;5.03;;;8.30;99.90;;;;;;5016090;28;20041;-80
2023/10/23 02:50:51;;;;;;;9.02;4.85;;;8.30;99.90;;;;;;5028329;28;20059;-80
2023/10/23 02:53:17;;;;;;;11.70;5.40;;;8.30;99.90;;;;;;5022798;28;20029;-80
2023/10/23 02:55:42;;;;;;;9.93;4.50;;;8.40;99.90;;;;;;5029728;28;20668;-80
2023/10/23 02:58:08;;;;;;;10.63;4.38;;;8.50;99.90;;;;;;5025073;28;20043;-80
2023/10/23 03:00:34;;;;;;;13.35;4.55;;;8.50;99.90;;;;;;5034816;28;20380;-80
2023/10/23 03:03:00;;;;;;;13.75;4.63;;;8.70;99.90;;;;;;5020290;28;20443;-80
2023/10/23 03:05:26;;;;;;;12.50;3.95;;;8.70;99.90;;;;;;5041485;28;20033;-81
2023/10/23 03:07:51;;;;;;;18.13;4.60;;;8.90;99.90;;;;;;5023131;28;20041;-80
2023/10/23 03:10:17;;;;;;;14.88;3.58;;;9.20;99.90;;;;;;5038587;28;20090;-80
2023/10/23 03:12:43;;;;;;;13.45;4.60;;;9.60;99.90;;;;;;5023039;28;20122;-81
2023/10/23 03:15:09;;;;;;;15.43;4.05;;;9.60;99.90;;;;;;5027204;28;20930;-81
2023/10/23 03:17:35;;;;;;;9.75;3.72;;;9.70;99.90;;;;;;5022602;28;20041;-80
2023/10/23 03:20:00;;;;;;;10.98;4.55;;;9.60;99.90;;;;;;5039217;28;20256;-80
2023/10/23 03:22:26;;;;;;;10.98;4.38;;;9.60;99.90;;;;;;5032938;28;20401;-81
2023/10/23 03:24:51;;;;;;;10.15;4.97;;;9.50;99.90;;;;;;5022990;28;20080;-81
2023/10/23 03:27:17;;;;;;;11.82;5.22;;;9.40;99.90;;;;;;5035967;28;20049;-80
2023/10/23 03:29:43;;;;;;;13.68;5.45;;;9.30;99.90;;;;;;5019366;28;20712;-80
2023/10/23 03:32:09;;;;;;;11.60;5.68;;;9.20;99.90;;;;;;5037809;28;20391;-80
2023/10/23 03:34:35;;;;;;;13.95;5.55;;;9.00;99.90;;;;;;5021667;28;20036;-80
2023/10/23 03:37:01;;;;;;;14.32;6.13;;;8.90;99.90;;;;;;5036399;28;20041;-81
2023/10/23 03:39:26;;;;;;;11.23;5.35;;;8.80;99.90;;;;;;5026948;28;20045;-80
2023/10/23 03:41:52;;;;;;;13.27;5.70;;;8.70;99.90;;;;;;5029425;28;20044;-80
2023/10/23 03:44:17;;;;;;;12.50;6.30;;;8.60;99.90;;;;;;5022506;28;20037;-80
2023/10/23 03:46:44;;;;;;;16.85;6.85;;;8.50;99.90;;;;;;5035578;28;20600;-80
2023/10/23 03:49:10;;;;;;;15.93;7.10;;;8.50;99.90;;;;;;5023565;28;20144;-80
2023/10/23 03:51:35;;;;;;;16.55;8.18;;;8.40;99.90;;;;;;5037837;28;20757;-80
2023/10/23 03:54:01;;;;;;;12.02;6.65;;;8.40;99.90;;;;;;5025797;28;20647;-80
2023/10/23 03:56:27;;;;;;;15.10;6.32;;;8.40;99.90;;;;;;5028925;28;20738;-80
2023/10/23 03:58:52;;;;;;;13.35;6.45;;;8.50;99.90;;;;;;5026719;28;20037;-81
2023/10/23 04:01:18;;;;;;;17.00;5.28;;;8.50;99.90;;;;;;5027043;28;20501;-80
2023/10/23 04:03:44;;;;;;;12.63;4.13;;;8.60;99.90;;;;;;5023952;28;20039;-80
2023/10/23 04:06:09;;;;;;;30.00;3.22;;;8.90;99.90;;;;;;5019837;28;20139;-80
2023/10/23 04:08:35;;;;;;;18.33;2.83;;;9.70;99.90;;;;;;5034315;28;20124;-80
2023/10/23 04:11:01;;;;;;;19.30;2.30;;;10.90;99.90;;;;;;5024614;28;20021;-80
2023/10/23 04:13:26;;;;;;;20.15;2.83;;;11.80;99.90;;;;;;5016768;28;20053;-80
2023/10/23 04:15:58;;;;;;;15.70;1.63;;;12.40;99.90;;;;;;5014621;28;20370;-80
2023/10/23 04:18:25;;;;;;;9.40;1.05;;;12.80;99.90;;;;;;5032519;28;21057;-80
2023/10/23 04:21:00;;;;;;;9.70;1.27;;;13.20;99.90;;;;;;5019192;28;21221;-80
2023/10/23 04:23:26;;;;;;;17.75;2.20;;;13.10;99.90;;;;;;5031546;28;20048;-80
2023/10/23 04:25:54;;;;;;;15.07;2.53;;;13.50;99.90;;;;;;5026085;28;20393;-80
2023/10/23 04:28:20;;;;;;;14.00;2.30;;;13.60;99.90;;;;;;5032136;28;20064;-80
2023/10/23 04:30:46;;;;;;;10.38;1.58;;;13.70;99.90;;;;;;5018285;28;20033;-80
2023/10/23 04:33:11;;;;;;;20.60;2.90;;;13.80;99.90;;;;;;5032179;28;20029;-80
2023/10/23 04:35:37;;;;;;;12.75;2.28;;;13.90;99.90;;;;;;5015490;28;20387;-80
2023/10/23 04:38:02;;;;;;;13.68;2.25;;;14.00;99.90;;;;;;5038895;28;20405;-80
2023/10/23 04:40:28;;;;;;;15.50;2.10;;;13.90;99.90;;;;;;5026169;28;20071;-81
2023/10/23 04:42:54;;;;;;;17.75;2.28;;;14.00;99.90;;;;;;5031564;28;20040;-80
2023/10/23 04:45:19;;;;;;;18.80;2.28;;;13.90;99.90;;;;;;5032210;28;20040;-80
2023/10/23 04:47:45;;;;;;;19.98;2.03;;;14.00;99.90;;;;;;5027550;28;20172;-80
2023/10/23 04:50:16;;;;;;;26.15;2.17;;;14.00;99.90;;;;;;5031807;28;20017;-80
2023/10/23 04:52:42;;;;;;;12.88;1.33;;;14.10;99.30;;;;;;5026239;28;20079;-80
2023/10/23 04:55:08;;;;;;;11.73;1.58;;;14.10;98.90;;;;;;5031284;28;20033;-80
2023/10/23 04:57:33;;;;;;;16.85;2.08;;;14.00;98.90;;;;;;5022349;28;21160;-80
2023/10/23 04:59:59;;;;;;;13.32;1.98;;;14.00;98.90;;;;;;5033666;28;20040;-80
2023/10/23 05:02:24;;;;;;;17.77;1.77;;;14.00;99.00;;;;;;5016540;28;20098;-80
2023/10/23 05:04:50;;;;;;;16.35;2.63;;;14.00;99.00;;;;;;5035490;28;20037;-79
2023/10/23 05:07:16;;;;;;;18.98;2.50;;;14.00;99.20;;;;;;5023729;28;20038;-80
2023/10/23 05:09:42;;;;;;;16.17;2.28;;;14.00;99.20;;;;;;5030205;28;20475;-81
2023/10/23 05:12:08;;;;;;;14.43;1.80;;;14.00;99.40;;;;;;5023472;28;20465;-80
2023/10/23 05:14:33;;;;;;;13.43;2.05;;;14.00;99.50;;;;;;5035243;28;20082;-80
2023/10/23 05:16:59;;;;;;;14.48;1.92;;;14.10;99.00;;;;;;5017401;28;21103;-80
2023/10/23 05:19:25;;;;;;;12.20;2.03;;;14.00;99.10;;;;;;5027497;28;20039;-80
2023/10/23 05:21:51;;;;;;;19.25;2.38;;;14.20;98.50;;;;;;5013311;28;20045;-80
2023/10/23 05:24:16;;;;;;;16.63;1.50;;;14.10;98.90;;;;;;5037233;28;20025;-80
2023/10/23 05:26:42;;;;;;;16.52;2.47;;;14.10;98.90;;;;;;5032877;28;20045;-80
2023/10/23 05:29:08;;;;;;;10.40;1.77;;;14.00;99.20;;;;;;5007512;28;20464;-80
2023/10/23 05:31:33;;;;;;;15.57;1.80;;;13.90;99.40;;;;;;5037092;28;20040;-80
2023/10/23 05:33:59;;;;;;;14.70;1.88;;;13.80;99.60;;;;;;5024371;28;20495;-80
2023/10/23 05:36:25;;;;;;;15.50;2.03;;;13.80;99.90;;;;;;5031958;28;20101;-80
2023/10/23 05:38:50;;;;;;;13.98;2.13;;;13.90;99.90;;;;;;5027001;28;20390;-81
2023/10/23 05:41:16;;;;;;;23.13;2.15;;;13.80;99.90;;;;;;5039924;28;20131;-80
2023/10/23 05:43:43;;;;;;;18.40;1.70;;;13.80;99.90;;;;;;5025808;28;20388;-80
2023/10/23 05:46:09;;;;;;;14.23;1.90;;;13.60;99.90;;;;;;5040861;28;20455;-81
2023/10/23 05:48:36;;;;;;;17.90;2.83;;;13.30;99.80;;;;;;5019330;28;20033;-81
2023/10/23 05:51:05;;;;;;;21.20;2.35;;;13.10;99.90;;;;;;5037140;28;20150;-80
2023/10/23 05:53:32;;;;;;;12.57;1.60;;;13.00;99.90;;;;;;5021557;28;20465;-80
2023/10/23 05:56:06;;;;;;;8.50;1.58;;;12.80;99.90;;;;;;5034960;28;20059;-80
2023/10/23 05:58:32;;;;;;;13.68;2.35;;;12.60;99.90;;;;;;5025054;28;20212;-80
2023/10/23 06:01:04;;;;;;;13.30;2.22;;;12.50;99.90;;;;;;5036591;28;20032;-80
2023/10/23 06:03:30;;;;;;;13.60;1.60;;;12.40;99.90;;;;;;5013899;28;20473;-80
2023/10/23 06:05:55;;;;;;;13.48;2.13;;;12.30;99.90;;;;;;5050983;28;20096;-80
2023/10/23 06:08:21;;;;;;;14.13;1.77;;;12.20;99.90;;;;;;5046481;28;20075;-81
2023/10/23 06:10:46;;;;;;;12.55;1.80;;;12.20;99.90;;;;;;5052849;28;20108;-80
2023/10/23 06:13:12;;;;;;;11.73;1.70;;;12.10;99.90;;;;;;5065160;28;20025;-81
2023/10/23 06:15:38;;;;;;;11.73;1.88;;;12.00;99.90;;;;;;5053522;28;20055;-80
2023/10/23 06:18:04;;;;;;;13.63;1.70;;;12.10;99.90;;;;;;5064251;28;20021;-80
2023/10/23 06:20:31;;;;;;;12.45;1.77;;;12.10;99.90;;;;;;5050514;28;20049;-80
2023/10/23 06:22:58;;;;;;;12.88;1.98;;;12.20;99.90;;;;;;5031065;28;20044;-80
2023/10/23 06:25:24;;;;;;;21.60;2.33;;;12.20;99.90;;;;;;5023430;28;20040;-80
2023/10/23 06:27:49;;;;;;;13.00;2.13;;;12.10;99.90;;;;;;5037150;28;20045;-80
2023/10/23 06:30:15;;;;;;;11.20;2.30;;;12.00;99.90;;;;;;5016562;28;20033;-81
2023/10/23 06:32:40;;;;;;;14.75;2.40;;;12.00;99.90;;;;;;5032831;28;20114;-80
2023/10/23 06:35:06;;;;;;;12.20;2.20;;;11.90;99.90;;;;;;5022449;28;20075;-80
2023/10/23 06:37:32;;;;;;;21.88;2.35;;;11.90;99.90;;;;;;5029027;28;20064;-81
2023/10/23 06:39:58;;;;;;;15.95;2.45;;;11.90;99.90;;;;;;5019868;28;20041;-80
2023/10/23 06:42:26;;;;;;;18.08;2.65;;;11.90;99.90;;;;;;5030337;28;20039;-80
2023/10/23 06:44:51;;;;;;;20.58;2.13;;;11.80;99.90;;;;;;5021738;28;20078;-80
2023/10/23 06:47:17;;;;;;;11.98;2.20;;;11.80;99.90;;;;;;5034451;28;20931;-80
2023/10/23 06:49:44;;;;;;;12.15;1.98;;;11.80;99.90;;;;;;5016054;28;20094;-81
2023/10/23 06:52:14;;;;;;;18.67;2.22;;;11.90;99.90;;;;;;5036291;28;20029;-80
2023/10/23 06:54:40;;;;;;;7.68;1.80;;;11.80;99.90;;;;;;5026385;28;20035;-81
2023/10/23 06:57:06;;;;;;;16.77;2.50;;;11.80;99.90;;;;;;5028911;28;20048;-80
2023/10/23 06:59:33;;;;;;;14.15;1.70;;;11.80;99.90;;;;;;5038764;28;20044;-80
2023/10/23 07:02:00;;;;;;;11.05;1.95;;;11.80;99.90;;;;;;5016763;28;20043;-80
2023/10/23 07:04:26;;;;;;;15.00;2.22;;;11.90;99.90;;;;;;5035391;28;20082;-80
2023/10/23 07:06:52;;;;;;;16.77;2.72;;;11.80;99.90;;;;;;5024820;28;20164;-81
2023/10/23 07:09:18;;;;;;;19.10;2.17;;;11.90;99.90;;;;;;5028011;28;20150;-80
2023/10/23 07:11:46;;;;;;;15.10;2.30;;;11.90;99.90;;;;;;5021009;28;20025;-80
2023/10/23 07:14:13;;;;;;;12.13;1.98;;;11.90;99.90;;;;;;5023514;28;20028;-80
2023/10/23 07:16:39;;;;;;;10.75;1.70;;;12.00;99.90;;;;;;5016287;28;20162;-81
2023/10/23 07:19:04;;;;;;;17.63;2.28;;;12.10;99.90;;;;;;5033994;28;20033;-80
2023/10/23 07:21:31;;;;;;;14.73;2.33;;;12.10;99.90;;;;;;5020381;28;20039;-81
2023/10/23 07:23:57;;;;;;;20.55;2.20;;;12.20;99.90;;;;;;5019743;28;20490;-80
2023/10/23 07:26:22;;;;;;;13.25;2.38;;;12.30;99.90;;;;;;5020473;28;20039;-80
2023/10/23 07:28:48;;;;;;;19.75;2.88;;;12.30;99.90;;;;;;5031345;28;20036;-81
2023/10/23 07:31:14;;;;;;;16.67;2.25;;;12.30;99.90;;;;;;5024294;28;20028;-80
2023/10/23 07:33:40;;;;;;;11.38;2.22;;;12.40;99.90;;;;;;5036977;28;20033;-81
2023/10/23 07:36:10;;;;;;;15.63;2.05;;;12.50;99.90;;;;;;5021953;28;21150;-81
2023/10/23 07:38:38;;;;;;;9.18;1.75;;;12.50;99.90;;;;;;5034479;28;20485;-80
2023/10/23 07:41:04;;;;;;;20.60;2.58;;;12.70;99.90;;;;;;5031804;28;20041;-80
2023/10/23 07:43:30;;;;;;;14.40;2.30;;;12.90;99.90;;;;;;5014677;28;20440;-80
2023/10/23 07:45:56;;;;;;;20.17;2.20;;;13.50;99.90;;;;;;5036186;28;20059;-79
2023/10/23 07:48:24;;;;;;;16.30;2.15;;;14.10;99.90;;;;;;5016812;28;20506;-80
2023/10/23 07:50:50;;;;;;;13.35;1.85;;;14.30;99.90;;;;;;5028972;28;20120;-81
2023/10/23 07:53:16;;;;;;;14.80;2.25;;;14.50;99.60;;;;;;5020763;28;20132;-80
2023/10/23 07:55:42;;;;;;;18.98;3.10;;;14.70;98.30;;;;;;5032669;28;20029;-79
2023/10/23 07:58:08;;;;;;;18.70;2.50;;;14.80;98.20;;;;;;5017465;28;20037;-80
2023/10/23 08:00:34;;;;;;;19.10;2.88;;;14.80;98.30;;;;;;5033251;28;20048;-80
2023/10/23 08:03:00;;;;;;;19.95;2.65;;;14.90;97.60;;;;;;5016328;28;20036;-80
2023/10/23 08:05:26;;;;;;;11.00;1.85;;;14.90;96.90;;;;;;5031561;28;20044;-80
2023/10/23 08:07:52;;;;;;;20.67;2.03;;;14.90;96.40;;;;;;5017841;28;20036;-80
2023/10/23 08:10:17;;;;;;;17.45;2.05;;;15.00;96.10;;;;;;5022140;28;20025;-80
2023/10/23 08:12:43;;;;;;;15.75;2.15;;;15.10;96.00;;;;;;5014666;28;20032;-80
2023/10/23 08:15:09;;;;;;;11.30;2.03;;;15.10;96.00;;;;;;5027615;28;20033;-81
2023/10/23 08:17:35;;;;;;;21.13;2.17;;;15.20;95.90;;;;;;5017108;28;20428;-80
2023/10/23 08:20:00;;;;;;;16.90;2.45;;;15.20;95.70;;;;;;5031330;28;20040;-80
2023/10/23 08:22:26;;;;;;;13.05;1.80;;;15.20;95.10;;;;;;5032340;28;20059;-80
2023/10/23 08:24:52;;;;;;;17.75;1.90;;;15.20;95.10;;;;;;5014916;28;20234;-80
2023/10/23 08:27:18;;;;;;;11.45;2.30;;;15.30;95.60;;;;;;5030878;28;20394;-81
2023/10/23 08:29:43;;;;;;;15.25;2.42;;;15.20;95.60;;;;;;5016848;28;20052;-80
2023/10/23 08:32:09;;;;;;;14.15;1.98;;;15.30;95.70;;;;;;5033517;28;20516;-80
2023/10/23 08:34:35;;;;;;;12.60;2.58;;;15.30;95.30;;;;;;5020734;28;20089;-80
2023/10/23 08:37:00;;;;;;;12.23;2.63;;;15.30;95.40;;;;;;5026681;28;20029;-80
2023/10/23 08:39:26;;;;;;;15.52;1.95;;;15.20;95.50;;;;;;5018156;28;20024;-82
2023/10/23 08:41:54;;;;;;;15.32;1.85;;;15.30;95.30;;;;;;5029997;28;20572;-81
2023/10/23 08:44:20;;;;;;;13.20;1.73;;;15.30;94.70;;;;;;5010709;28;20090;-82
2023/10/23 08:46:47;;;;;;;22.75;2.35;;;15.30;94.60;;;;;;5036127;28;20095;-80
2023/10/23 08:49:13;;;;;;;22.00;2.63;;;15.30;94.70;;;;;;5018986;28;20021;-80
2023/10/23 08:51:41;;;;;;;21.45;2.60;;;15.40;95.10;;;;;;5022040;28;20386;-80
2023/10/23 08:54:17;;;;;;;11.25;1.92;;;15.40;95.20;;;;;;5016974;28;20065;-77
2023/10/23 08:56:43;;;;;;;17.60;2.17;;;15.40;94.00;;;;;;5019480;28;20155;-83
2023/10/23 08:59:10;;;;;;;14.73;2.05;;;15.40;93.70;;;;;;5018925;28;20029;-79
2023/10/23 09:01:37;;;;;;;11.45;1.63;;;15.40;93.40;;;;;;5036210;28;20036;-78
2023/10/23 09:04:03;;;;;;;16.30;2.58;;;15.50;93.40;;;;;;5021601;28;20026;-79
2023/10/23 09:06:30;;;;;;;10.13;1.70;;;15.50;93.50;;;;;;5032890;28;20037;-79
2023/10/23 09:08:56;;;;;;;16.17;2.00;;;15.50;93.50;;;;;;5021555;28;20532;-78
2023/10/23 09:11:45;;;;;;;16.50;2.17;;;15.60;93.10;;;;;;5017254;28;20117;-80
2023/10/23 09:14:22;;;;;;;10.93;2.25;;;15.60;92.80;;;;;;5025684;28;20560;-79
2023/10/23 09:16:48;;;;;;;13.10;2.30;;;15.60;93.10;;;;;;5028747;28;20032;-79
2023/10/23 09:19:24;;;;;;;10.82;1.88;;;15.70;93.20;;;;;;5035995;28;20037;-80
2023/10/23 09:21:53;;;;;;;19.80;2.65;;;15.70;93.20;;;;;;5033964;28;20091;-80
2023/10/23 09:24:19;;;;;;;9.30;1.52;;;15.70;92.90;;;;;;5026438;28;20044;-79
2023/10/23 09:26:45;;;;;;;13.02;1.55;;;15.80;92.50;;;;;;5023272;28;20043;-80
2023/10/23 09:29:10;;;;;;;13.73;2.40;;;15.70;92.60;;;;;;5030429;28;20029;-80
2023/10/23 09:31:40;;;;;;;13.35;1.77;;;15.80;92.80;;;;;;5014411;28;20463;-80
2023/10/23 09:34:07;;;;;;;15.60;2.88;;;15.70;92.80;;;;;;5038912;28;20112;-79
2023/10/23 09:36:33;;;;;;;11.68;2.13;;;15.90;92.80;;;;;;5016811;28;20052;-81
2023/10/23 09:39:00;;;;;;;15.50;1.95;;;15.80;93.00;;;;;;5037508;28;20178;-80
2023/10/23 09:41:27;;;;;;;15.98;2.25;;;15.90;93.10;;;;;;5020006;28;20079;-79
2023/10/23 09:43:56;;;;;;;17.58;1.92;;;15.90;93.00;;;;;;5027079;28;20045;-79
2023/10/23 09:46:25;;;;;;;14.15;2.05;;;15.80;92.90;;;;;;5014704;28;20037;-79
2023/10/23 09:48:52;;;;;;;10.77;1.90;;;15.90;92.80;;;;;;5033069;28;20094;-79
2023/10/23 09:51:23;;;;;;;14.88;1.73;;;15.90;92.90;;;;;;5020837;28;20029;-79
2023/10/23 09:53:50;;;;;;;15.30;2.42;;;15.90;92.80;;;;;;5037380;28;20076;-80
2023/10/23 09:56:20;;;;;;;22.75;2.00;;;15.90;92.50;;;;;;5021554;28;20029;-80
2023/10/23 09:58:51;;;;;;;16.33;2.03;;;15.90;92.30;;;;;;5032932;28;20139;-80
2023/10/23 10:01:18;;;;;;;13.63;1.98;;;15.90;92.40;;;;;;5021915;28;20041;-80
2023/10/23 10:03:46;;;;;;;12.18;1.52;;;15.90;92.30;;;;;;5029196;28;20033;-80
2023/10/23 10:06:17;;;;;;;13.05;2.28;;;15.80;92.10;;;;;;5026226;28;20062;-80
2023/10/23 10:08:50;;;;;;;9.45;1.70;;;15.90;92.70;;;;;;5033618;28;20037;-80
2023/10/23 10:11:16;;;;;;;18.13;1.90;;;15.90;92.50;;;;;;5019876;28;20112;-80
2023/10/23 10:13:42;;;;;;;14.45;1.98;;;15.90;92.20;;;;;;5033021;28;20029;-80
2023/10/23 10:16:10;;;;;;;17.13;1.90;;;15.80;91.90;;;;;;5029000;28;20037;-80
2023/10/23 10:18:36;;;;;;;18.10;2.55;;;15.90;92.30;;;;;;5014885;28;20545;-80
2023/10/23 10:21:07;;;;;;;15.02;1.98;;;15.90;92.20;;;;;;5034576;28;20036;-80
2023/10/23 10:23:35;;;;;;;15.50;2.05;;;15.90;91.80;;;;;;5016193;28;20029;-80
2023/10/23 10:26:02;;;;;;;19.23;2.42;;;15.90;92.20;;;;;;5031101;28;20127;-79
2023/10/23 10:28:27;;;;;;;12.98;2.40;;;15.80;91.90;;;;;;5020626;28;20040;-80
2023/10/23 10:30:54;;;;;;;15.75;2.03;;;15.90;92.20;;;;;;5031209;28;20122;-79
2023/10/23 10:33:24;;;;;;;16.00;2.20;;;16.00;92.10;;;;;;5020561;28;20081;-80
2023/10/23 10:36:01;;;;;;;12.90;2.50;;;16.00;91.40;;;;;;5036091;28;20030;-79
2023/10/23 10:38:30;;;;;;;19.20;2.83;;;16.00;91.70;;;;;;5018221;28;20441;-79
2023/10/23 10:41:02;;;;;;;16.63;2.55;;;16.10;91.80;;;;;;5035681;28;20100;-79
2023/10/23 10:43:32;;;;;;;14.40;2.53;;;16.10;91.80;;;;;;5019398;28;20037;-79
2023/10/23 10:46:00;;;;;;;18.75;3.03;;;16.00;91.90;;;;;;5033986;28;20063;-79
2023/10/23 10:48:41;;;;;;;21.17;3.22;;;16.10;91.60;;;;;;5017592;28;20127;-79
2023/10/23 10:51:07;;;;;;;18.60;2.53;;;16.10;91.80;;;;;;5026824;28;20115;-80
2023/10/23 10:53:32;;;;;;;19.20;2.97;;;16.10;91.50;;;;;;5024102;28;20031;-80
2023/10/23 10:55:58;;;;;;;18.58;2.70;;;16.10;91.20;;;;;;5030221;28;20025;-78
2023/10/23 10:58:25;;;;;;;21.67;2.95;;;16.00;91.30;;;;;;5013257;28;20116;-80
2023/10/23 11:00:50;;;;;;;17.55;2.17;;;16.10;91.00;;;;;;5036235;28;20614;-79
2023/10/23 11:03:17;;;;;;;19.58;2.45;;;16.20;90.90;;;;;;5017859;28;20951;-80
2023/10/23 11:05:45;;;;;;;17.90;2.80;;;16.30;90.40;;;;;;5032641;28;20053;-80
2023/10/23 11:08:11;;;;;;;15.85;2.33;;;16.30;90.60;;;;;;5022554;28;20044;-81
2023/10/23 11:10:36;;;;;;;19.83;2.15;;;16.30;90.50;;;;;;5029790;28;20032;-81
2023/10/23 11:13:02;;;;;;;13.63;3.08;;;16.30;90.30;;;;;;5031034;28;20029;-80
2023/10/23 11:15:28;;;;;;;13.88;2.35;;;16.40;90.10;;;;;;5023032;28;20047;-80
2023/10/23 11:17:54;;;;;;;13.73;2.38;;;16.30;89.40;;;;;;5029582;28;20384;-81
2023/10/23 11:20:19;;;;;;;19.50;2.10;;;16.40;89.50;;;;;;5017602;28;20386;-79
2023/10/23 11:22:48;;;;;;;14.10;2.15;;;16.40;89.20;;;;;;5035003;28;20279;-80
2023/10/23 11:25:14;;;;;;;12.18;2.03;;;16.50;89.00;;;;;;5018345;28;20041;-79
2023/10/23 11:27:41;;;;;;;13.35;2.30;;;16.60;88.60;;;;;;5034027;28;20049;-79
2023/10/23 11:30:08;;;;;;;16.52;2.45;;;16.70;88.70;;;;;;5019842;28;20639;-78
2023/10/23 11:32:34;;;;;;;10.65;1.92;;;16.70;88.10;;;;;;5030622;28;21201;-79
2023/10/23 11:35:03;;;;;;;8.63;1.65;;;16.70;88.80;;;;;;5020626;28;20044;-79
2023/10/23 11:37:32;;;;;;;8.55;1.65;;;16.70;88.90;;;;;;5027982;28;20061;-79
2023/10/23 11:40:06;;;;;;;11.05;2.30;;;16.70;88.70;;;;;;5022054;28;20512;-79
2023/10/23 11:42:41;;;;;;;11.90;1.55;;;16.90;88.20;;;;;;5030697;28;20056;-79
2023/10/23 11:45:09;;;;;;;11.27;2.40;;;17.00;87.40;;;;;;5013069;28;20040;-79
2023/10/23 11:47:37;;;;;;;11.93;1.60;;;16.90;87.90;;;;;;5035104;28;20355;-79
2023/10/23 11:50:05;;;;;;;10.75;1.25;;;16.90;87.10;;;;;;5016228;28;21797;-79
2023/10/23 11:52:32;;;;;;;9.80;1.80;;;17.00;86.80;;;;;;5032316;28;20040;-79
2023/10/23 11:54:58;;;;;;;11.20;2.00;;;17.00;86.60;;;;;;5019952;28;20132;-78
2023/10/23 11:57:23;;;;;;;10.35;1.90;;;16.90;86.70;;;;;;5023704;28;20037;-79
2023/10/23 11:59:49;;;;;;;12.50;2.38;;;17.00;86.50;;;;;;5014070;28;20068;-80
2023/10/23 12:02:15;;;;;;;16.58;1.95;;;17.10;86.50;;;;;;5032413;28;20455;-79
2023/10/23 12:04:41;;;;;;;12.13;2.10;;;17.20;85.80;;;;;;5025015;28;20032;-79
2023/10/23 12:07:07;;;;;;;11.93;2.47;;;17.10;86.20;;;;;;5018110;28;20040;-79
2023/10/23 12:09:32;;;;;;;9.40;1.88;;;16.90;86.20;;;;;;5030814;28;20036;-79
2023/10/23 12:11:58;;;;;;;14.25;2.00;;;16.80;86.60;;;;;;5016123;28;20048;-79
2023/10/23 12:14:24;;;;;;;12.52;2.35;;;16.70;87.30;;;;;;5034350;28;20033;-79
2023/10/23 12:16:49;;;;;;;13.40;2.17;;;16.70;87.80;;;;;;5017387;28;20033;-80
2023/10/23 12:19:15;;;;;;;15.60;2.28;;;16.80;87.50;;;;;;5026006;28;20029;-79
2023/10/23 12:21:41;;;;;;;13.73;1.73;;;16.80;86.90;;;;;;5012641;28;20060;-79
2023/10/23 12:24:07;;;;;;;14.13;2.38;;;16.60;87.10;;;;;;5020098;28;20472;-79
2023/10/23 12:26:32;;;;;;;12.73;2.17;;;16.60;87.80;;;;;;5021493;28;20033;-79
2023/10/23 12:28:59;;;;;;;11.82;1.73;;;16.60;88.10;;;;;;5029223;28;20041;-78
2023/10/23 12:31:26;;;;;;;12.98;1.88;;;16.70;87.90;;;;;;5018804;28;20020;-81
2023/10/23 12:33:52;;;;;;;13.60;2.38;;;16.80;87.60;;;;;;5033630;28;20036;-81
2023/10/23 12:36:19;;;;;;;17.80;2.03;;;16.70;87.20;;;;;;5024972;28;20034;-81